createdAt,value
2019-02-21T00:01:23.510Z,31.48
2019-02-21T00:03:49.693Z,25.77
2019-02-21T00:06:16.197Z,29.50
2019-02-21T00:08:42.491Z,33.73
2019-02-21T00:11:08.704Z,28.12
2019-02-21T00:13:34.893Z,34.23
2019-02-21T00:16:02.198Z,27.32
2019-02-21T00:18:28.370Z,30.62
2019-02-21T00:20:54.622Z,27.60
2019-02-21T00:23:20.868Z,34.45
2019-02-21T00:25:47.056Z,27.82
2019-02-21T00:28:13.255Z,42.50
2019-02-21T00:30:39.436Z,29.40
2019-02-21T00:33:05.640Z,30.85
2019-02-21T00:35:31.820Z,30.77
2019-02-21T00:37:57.980Z,28.95
2019-02-21T00:40:24.173Z,29.75
2019-02-21T00:42:50.329Z,29.35
2019-02-21T00:45:16.503Z,27.32
2019-02-21T00:47:42.681Z,33.33
2019-02-21T00:50:08.850Z,25.32
2019-02-21T00:52:35.066Z,35.45
2019-02-21T00:55:01.248Z,31.42
2019-02-21T00:57:27.409Z,28.00
2019-02-21T00:59:53.893Z,32.65
2019-02-21T01:02:20.068Z,28.95
2019-02-21T01:04:46.256Z,29.20
2019-02-21T01:07:12.441Z,27.62
2019-02-21T01:09:38.600Z,31.27
2019-02-21T01:12:04.792Z,29.60
2019-02-21T01:14:30.962Z,31.33
2019-02-21T01:16:57.158Z,31.15
2019-02-21T01:19:23.346Z,29.85
2019-02-21T01:21:49.504Z,21.50
2019-02-21T01:24:16.410Z,22.05
2019-02-21T01:26:42.597Z,26.40
2019-02-21T01:29:08.769Z,25.68
2019-02-21T01:31:34.964Z,30.08
2019-02-21T01:34:01.149Z,27.50
2019-02-21T01:36:28.364Z,31.73
2019-02-21T01:38:54.535Z,25.82
2019-02-21T01:41:20.713Z,24.25
2019-02-21T01:43:46.877Z,26.52
2019-02-21T01:46:13.056Z,24.15
2019-02-21T01:48:39.231Z,22.15
2019-02-21T01:51:05.521Z,30.55
2019-02-21T01:53:31.814Z,25.02
2019-02-21T01:55:58.008Z,27.85
2019-02-21T01:58:24.174Z,27.48
2019-02-21T02:00:50.355Z,22.77
2019-02-21T02:03:16.531Z,25.45
2019-02-21T02:05:42.780Z,24.47
2019-02-21T02:08:09.093Z,27.00
2019-02-21T02:10:35.268Z,25.50
2019-02-21T02:13:01.445Z,23.30
2019-02-21T02:15:27.633Z,26.90
2019-02-21T02:17:53.794Z,26.80
2019-02-21T02:20:20.017Z,25.35
2019-02-21T02:22:46.196Z,29.20
2019-02-21T02:25:12.381Z,29.77
2019-02-21T02:27:38.576Z,26.57
2019-02-21T02:30:06.228Z,31.65
2019-02-21T02:32:32.625Z,26.00
2019-02-21T02:34:59.925Z,26.33
2019-02-21T02:37:26.308Z,25.05
2019-02-21T02:39:52.496Z,27.42
2019-02-21T02:42:18.663Z,31.73
2019-02-21T02:44:44.869Z,27.98
2019-02-21T02:47:11.029Z,26.97
2019-02-21T02:49:38.316Z,26.57
2019-02-21T02:52:04.538Z,25.68
2019-02-21T02:54:30.766Z,30.90
2019-02-21T02:56:58.015Z,25.62
2019-02-21T02:59:24.205Z,26.37
2019-02-21T03:01:50.457Z,27.85
2019-02-21T03:04:16.718Z,29.05
2019-02-21T03:06:42.986Z,26.02
2019-02-21T03:09:11.255Z,26.35
2019-02-21T03:11:37.468Z,27.82
2019-02-21T03:14:03.631Z,29.52
2019-02-21T03:16:29.823Z,30.90
2019-02-21T03:18:56.008Z,30.40
2019-02-21T03:21:22.200Z,30.92
2019-02-21T03:23:48.376Z,26.77
2019-02-21T03:26:14.569Z,25.70
2019-02-21T03:28:40.744Z,30.40
2019-02-21T03:31:06.902Z,28.80
2019-02-21T03:33:33.113Z,26.70
2019-02-21T03:35:59.276Z,25.62
2019-02-21T03:38:25.447Z,31.27
2019-02-21T03:40:51.612Z,34.45
2019-02-21T03:43:17.815Z,26.00
2019-02-21T03:45:43.977Z,36.25
2019-02-21T03:48:10.171Z,27.73
2019-02-21T03:50:36.360Z,25.62
2019-02-21T03:53:02.589Z,34.80
2019-02-21T03:55:28.776Z,28.62
2019-02-21T03:57:54.950Z,30.92
2019-02-21T04:00:21.134Z,30.62
2019-02-21T04:02:47.314Z,30.90
2019-02-21T04:05:13.485Z,32.23
2019-02-21T04:07:39.648Z,35.17
2019-02-21T04:10:07.145Z,32.13
2019-02-21T04:12:33.358Z,33.83
2019-02-21T04:14:59.543Z,29.70
2019-02-21T04:17:25.825Z,32.33
2019-02-21T04:19:52.013Z,29.63
2019-02-21T04:22:18.186Z,31.57
2019-02-21T04:24:44.372Z,32.17
2019-02-21T04:27:10.569Z,31.17
2019-02-21T04:29:36.729Z,29.35
2019-02-21T04:32:02.915Z,28.15
2019-02-21T04:34:29.100Z,28.65
2019-02-21T04:36:55.301Z,32.50
2019-02-21T04:39:21.474Z,36.65
2019-02-21T04:41:47.643Z,33.18
2019-02-21T04:44:14.846Z,31.07
2019-02-21T04:46:41.019Z,31.75
2019-02-21T04:49:07.195Z,24.52
2019-02-21T04:51:33.387Z,31.42
2019-02-21T04:53:59.557Z,31.52
2019-02-21T04:56:25.769Z,27.02
2019-02-21T04:58:51.981Z,28.98
2019-02-21T05:01:18.153Z,28.57
2019-02-21T05:03:44.352Z,27.22
2019-02-21T05:06:10.525Z,27.42
2019-02-21T05:08:37.024Z,29.05
2019-02-21T05:11:03.201Z,26.60
2019-02-21T05:13:29.383Z,32.75
2019-02-21T05:15:55.656Z,25.95
2019-02-21T05:18:21.824Z,27.77
2019-02-21T05:20:48.095Z,28.12
2019-02-21T05:23:15.999Z,35.28
2019-02-21T05:25:42.162Z,31.65
2019-02-21T05:28:18.926Z,31.55
2019-02-21T05:30:46.193Z,25.88
2019-02-21T05:33:31.135Z,26.90
2019-02-21T05:35:59.190Z,30.77
2019-02-21T05:38:33.386Z,26.80
2019-02-21T05:41:04.222Z,28.50
2019-02-21T05:43:31.757Z,28.95
2019-02-21T05:46:09.073Z,27.10
2019-02-21T05:48:40.097Z,32.30
2019-02-21T05:51:13.161Z,30.40
2019-02-21T05:53:41.393Z,31.75
2019-02-21T05:56:25.898Z,30.43
2019-02-21T05:58:54.000Z,28.77
2019-02-21T06:01:24.948Z,34.23
2019-02-21T06:04:01.877Z,28.50
2019-02-21T06:06:36.233Z,29.35
2019-02-21T06:09:11.339Z,34.38
2019-02-21T06:11:39.514Z,29.40
2019-02-21T06:14:24.239Z,28.30
2019-02-21T06:17:04.658Z,29.77
2019-02-21T06:19:35.539Z,28.80
2019-02-21T06:22:10.636Z,30.88
2019-02-21T06:24:42.383Z,29.42
2019-02-21T06:27:13.232Z,31.42
2019-02-21T06:29:44.126Z,25.20
2019-02-21T06:32:14.199Z,24.27
2019-02-21T06:34:38.493Z,30.70
2019-02-21T06:37:04.674Z,27.98
2019-02-21T06:39:30.844Z,24.82
2019-02-21T06:41:59.909Z,32.17
2019-02-21T06:44:25.180Z,31.12
2019-02-21T06:46:51.372Z,24.07
2019-02-21T06:49:17.529Z,26.57
2019-02-21T06:51:43.692Z,28.38
2019-02-21T06:54:09.882Z,27.25
2019-02-21T06:56:36.057Z,27.00
2019-02-21T06:59:02.248Z,26.27
2019-02-21T07:01:29.577Z,26.77
2019-02-21T07:03:56.059Z,27.80
2019-02-21T07:06:31.488Z,29.37
2019-02-21T07:08:50.459Z,24.40
2019-02-21T07:11:16.632Z,28.85
2019-02-21T07:13:42.819Z,24.07
2019-02-21T07:16:09.001Z,25.08
2019-02-21T07:18:35.234Z,27.45
2019-02-21T07:21:01.403Z,23.32
2019-02-21T07:23:28.035Z,27.35
2019-02-21T07:25:55.489Z,29.52
2019-02-21T07:28:21.672Z,26.12
2019-02-21T07:30:49.029Z,27.70
2019-02-21T07:33:27.271Z,25.37
2019-02-21T07:35:43.303Z,28.12
2019-02-21T07:38:09.477Z,27.75
2019-02-21T07:40:36.669Z,26.75
2019-02-21T07:43:02.831Z,25.75
2019-02-21T07:45:29.128Z,27.58
2019-02-21T07:47:55.331Z,27.20
2019-02-21T07:50:23.140Z,30.40
2019-02-21T07:52:49.576Z,21.35
2019-02-21T07:55:15.848Z,27.13
2019-02-21T07:57:42.054Z,23.75
2019-02-21T08:00:11.835Z,27.50
2019-02-21T08:02:38.020Z,21.37
2019-02-21T08:05:05.830Z,22.45
2019-02-21T08:07:32.398Z,18.32
2019-02-21T08:09:58.554Z,17.37
2019-02-21T08:12:25.050Z,15.58
2019-02-21T08:14:51.214Z,20.50
2019-02-21T08:17:18.492Z,23.07
2019-02-21T08:19:44.669Z,18.30
2019-02-21T08:22:10.860Z,18.32
2019-02-21T08:24:37.027Z,19.57
2019-02-21T08:27:03.536Z,18.10
2019-02-21T08:29:29.812Z,20.20
2019-02-21T08:31:56.004Z,19.02
2019-02-21T08:34:24.135Z,25.08
2019-02-21T08:36:50.515Z,19.67
2019-02-21T08:39:16.729Z,21.55
2019-02-21T08:41:42.894Z,19.42
2019-02-21T08:44:09.380Z,21.02
2019-02-21T08:46:35.541Z,21.35
2019-02-21T08:49:01.720Z,26.02
2019-02-21T08:51:27.896Z,26.70
2019-02-21T08:53:54.097Z,27.55
2019-02-21T08:56:20.268Z,24.23
2019-02-21T08:58:46.491Z,23.22
2019-02-21T09:01:12.653Z,25.85
2019-02-21T09:03:38.822Z,26.85
2019-02-21T09:06:05.020Z,25.75
2019-02-21T09:08:33.830Z,30.12
2019-02-21T09:10:59.309Z,24.43
2019-02-21T09:13:25.505Z,27.98
2019-02-21T09:15:51.723Z,24.57
2019-02-21T09:18:19.658Z,23.57
2019-02-21T09:20:47.772Z,21.52
2019-02-21T09:23:15.863Z,23.92
2019-02-21T09:25:42.216Z,23.80
2019-02-21T09:28:09.271Z,25.90
2019-02-21T09:30:35.459Z,26.50
2019-02-21T09:33:01.669Z,27.37
2019-02-21T09:35:27.861Z,24.67
2019-02-21T09:37:54.037Z,25.88
2019-02-21T09:40:20.270Z,28.42
2019-02-21T09:42:46.599Z,25.08
2019-02-21T09:45:15.061Z,28.20
2019-02-21T09:47:41.382Z,28.27
2019-02-21T09:50:09.039Z,28.20
2019-02-21T09:52:35.207Z,27.73
2019-02-21T09:55:01.408Z,31.93
2019-02-21T09:57:27.764Z,29.20
2019-02-21T09:59:53.965Z,24.07
2019-02-21T10:02:20.541Z,22.20
2019-02-21T10:04:48.288Z,28.47
2019-02-21T10:07:14.457Z,22.40
2019-02-21T10:09:40.685Z,22.32
2019-02-21T10:12:06.853Z,20.80
2019-02-21T10:14:33.034Z,22.05
2019-02-21T10:16:59.275Z,22.67
2019-02-21T10:19:25.424Z,23.67
2019-02-21T10:21:51.633Z,26.65
2019-02-21T10:24:17.782Z,26.82
2019-02-21T10:26:43.961Z,22.93
2019-02-21T10:29:10.160Z,24.65
2019-02-21T10:31:36.325Z,25.80
2019-02-21T10:34:02.545Z,23.70
2019-02-21T10:36:28.724Z,25.35
2019-02-21T10:38:54.952Z,20.80
2019-02-21T10:41:21.134Z,18.62
2019-02-21T10:43:48.442Z,25.02
2019-02-21T10:46:14.603Z,21.00
2019-02-21T10:48:40.802Z,22.07
2019-02-21T10:51:06.971Z,27.17
2019-02-21T10:53:33.149Z,25.90
2019-02-21T10:55:59.336Z,26.60
2019-02-21T10:58:25.549Z,27.02
2019-02-21T11:00:51.704Z,25.02
2019-02-21T11:03:17.901Z,22.98
2019-02-21T11:05:44.073Z,25.75
2019-02-21T11:08:10.255Z,24.05
2019-02-21T11:10:36.515Z,21.27
2019-02-21T11:13:02.676Z,25.72
2019-02-21T11:15:28.877Z,22.55
2019-02-21T11:17:55.048Z,23.85
2019-02-21T11:20:21.239Z,19.75
2019-02-21T11:22:47.401Z,18.52
2019-02-21T11:25:13.574Z,21.55
2019-02-21T11:27:39.796Z,21.87
2019-02-21T11:30:11.581Z,21.05
2019-02-21T11:32:37.761Z,21.10
2019-02-21T11:35:06.487Z,21.60
2019-02-21T11:37:42.949Z,24.52
2019-02-21T11:40:01.315Z,27.87
2019-02-21T11:42:27.663Z,28.32
2019-02-21T11:44:54.033Z,27.60
2019-02-21T11:50:17.132Z,28.87
2019-02-21T11:52:43.358Z,26.17
2019-02-21T11:55:13.357Z,31.07
2019-02-21T11:57:39.544Z,27.20
2019-02-21T12:00:12.485Z,34.27
2019-02-21T12:02:39.181Z,27.35
2019-02-21T12:05:05.500Z,31.45
2019-02-21T12:07:31.711Z,23.05
2019-02-21T12:09:57.993Z,26.52
2019-02-21T12:12:24.186Z,24.25
2019-02-21T12:14:50.373Z,29.20
2019-02-21T12:17:18.428Z,26.82
2019-02-21T12:19:44.600Z,31.07
2019-02-21T12:22:10.769Z,24.07
2019-02-21T12:24:36.956Z,28.85
2019-02-21T12:27:03.152Z,26.77
2019-02-21T12:29:29.340Z,30.25
2019-02-21T12:31:55.509Z,25.90
2019-02-21T12:34:21.742Z,30.02
2019-02-21T12:36:47.921Z,31.40
2019-02-21T12:39:15.113Z,33.18
2019-02-21T12:41:41.312Z,28.60
2019-02-21T12:44:09.385Z,31.82
2019-02-21T12:46:35.582Z,30.02
2019-02-21T12:49:01.746Z,31.80
2019-02-21T12:51:28.073Z,30.92
2019-02-21T12:53:54.278Z,31.02
2019-02-21T12:56:20.492Z,26.30
2019-02-21T12:58:46.688Z,29.85
2019-02-21T13:01:12.859Z,31.87
2019-02-21T13:03:39.080Z,30.30
2019-02-21T13:06:05.372Z,32.93
2019-02-21T13:08:31.621Z,29.52
2019-02-21T13:10:57.932Z,33.88
2019-02-21T13:13:24.172Z,31.10
2019-02-21T13:15:50.372Z,30.68
2019-02-21T13:18:16.545Z,31.77
2019-02-21T13:20:42.740Z,37.30
2019-02-21T13:23:08.936Z,30.40
2019-02-21T13:25:36.116Z,32.23
2019-02-21T13:28:02.310Z,31.55
2019-02-21T13:30:28.597Z,27.22
2019-02-21T13:32:54.847Z,31.75
2019-02-21T13:35:21.100Z,31.27
2019-02-21T13:37:47.313Z,28.92
2019-02-21T13:40:14.464Z,31.37
2019-02-21T13:42:40.641Z,28.90
2019-02-21T13:45:09.677Z,32.53
2019-02-21T13:47:35.941Z,33.00
2019-02-21T13:50:04.967Z,29.55
2019-02-21T13:52:32.257Z,31.05
2019-02-21T13:54:58.465Z,32.53
2019-02-21T13:57:24.677Z,29.20
2019-02-21T13:59:50.837Z,31.45
2019-02-21T14:02:17.025Z,31.68
2019-02-21T14:04:43.189Z,27.45
2019-02-21T14:07:09.431Z,28.50
2019-02-21T14:09:37.882Z,29.42
2019-02-21T14:12:03.924Z,29.52
2019-02-21T14:14:30.945Z,29.60
2019-02-21T14:16:57.273Z,26.93
2019-02-21T14:19:23.468Z,31.05
2019-02-21T14:21:49.763Z,27.95
2019-02-21T14:24:15.945Z,29.32
2019-02-21T14:26:42.138Z,27.32
2019-02-21T14:29:08.380Z,23.92
2019-02-21T14:31:34.580Z,25.80
2019-02-21T14:34:02.182Z,25.92
2019-02-21T14:36:28.376Z,25.00
2019-02-21T14:38:54.576Z,25.20
2019-02-21T14:41:20.760Z,25.95
2019-02-21T14:43:46.936Z,28.55
2019-02-21T14:46:13.129Z,25.85
2019-02-21T14:48:39.549Z,23.12
2019-02-21T14:51:05.795Z,25.25
2019-02-21T14:53:31.962Z,23.02
2019-02-21T14:55:58.159Z,16.90
2019-02-21T14:58:24.325Z,15.05
2019-02-21T15:00:50.516Z,18.00
2019-02-21T15:03:22.087Z,14.87
2019-02-21T15:05:45.282Z,19.80
2019-02-21T15:08:12.535Z,18.50
2019-02-21T15:10:39.054Z,18.05
2019-02-21T15:13:05.208Z,21.70
2019-02-21T15:15:34.945Z,13.25
2019-02-21T15:18:07.540Z,17.77
2019-02-21T15:20:36.942Z,18.23
2019-02-21T15:22:58.340Z,16.87
2019-02-21T15:25:25.134Z,15.80
2019-02-21T15:27:51.904Z,21.37
2019-02-21T15:30:20.068Z,15.95
2019-02-21T15:32:47.413Z,16.65
2019-02-21T15:35:14.339Z,19.25
2019-02-21T15:37:41.801Z,18.02
2019-02-21T15:40:09.174Z,21.52
2019-02-21T15:42:35.692Z,19.42
2019-02-21T15:45:03.662Z,13.93
2019-02-21T15:47:30.216Z,15.35
2019-02-21T15:49:59.095Z,19.37
2019-02-21T15:52:27.228Z,15.83
2019-02-21T15:54:53.993Z,21.57
2019-02-21T15:57:20.402Z,17.57
2019-02-21T15:59:48.412Z,14.63
2019-02-21T16:02:15.655Z,14.78
2019-02-21T16:04:41.841Z,16.35
2019-02-21T16:07:08.713Z,12.18
2019-02-21T16:09:36.071Z,19.02
2019-02-21T16:12:02.617Z,16.05
2019-02-21T16:14:28.912Z,21.55
2019-02-21T16:16:56.636Z,18.15
2019-02-21T16:19:22.871Z,18.67
2019-02-21T16:21:49.138Z,21.37
2019-02-21T16:24:15.302Z,15.88
2019-02-21T16:26:41.496Z,22.10
2019-02-21T16:29:07.678Z,22.40
2019-02-21T16:31:33.851Z,15.50
2019-02-21T16:34:00.056Z,16.73
2019-02-21T16:36:26.412Z,21.17
2019-02-21T16:38:52.815Z,14.47
2019-02-21T16:41:18.991Z,22.55
2019-02-21T16:43:45.187Z,15.43
2019-02-21T16:46:11.352Z,20.92
2019-02-21T16:48:37.637Z,20.80
2019-02-21T16:51:04.800Z,15.40
2019-02-21T16:53:30.981Z,21.52
2019-02-21T16:55:59.049Z,13.83
2019-02-21T16:58:25.258Z,15.40
2019-02-21T17:00:56.580Z,20.68
2019-02-21T17:03:22.493Z,14.85
2019-02-21T17:05:49.362Z,13.48
2019-02-21T17:08:15.671Z,17.23
2019-02-21T17:10:41.980Z,16.77
2019-02-21T17:13:11.317Z,18.82
2019-02-21T17:15:37.502Z,15.78
2019-02-21T17:18:04.122Z,15.05
2019-02-21T17:20:30.468Z,21.73
2019-02-21T17:22:56.633Z,17.95
2019-02-21T17:25:22.855Z,12.98
2019-02-21T17:27:49.450Z,18.75
2019-02-21T17:30:16.541Z,17.23
2019-02-21T17:32:42.709Z,15.23
2019-02-21T17:35:08.896Z,16.23
2019-02-21T17:37:36.228Z,16.23
2019-02-21T17:40:07.258Z,20.17
2019-02-21T17:42:33.544Z,18.20
2019-02-21T17:44:59.746Z,17.77
2019-02-21T17:47:25.955Z,18.70
2019-02-21T17:49:52.107Z,24.82
2019-02-21T17:52:18.396Z,22.75
2019-02-21T17:54:44.625Z,19.45
2019-02-21T17:57:10.827Z,18.92
2019-02-21T17:59:37.026Z,23.65
2019-02-21T18:02:03.308Z,20.82
2019-02-21T18:04:29.576Z,19.55
2019-02-21T18:06:55.777Z,23.60
2019-02-21T18:09:22.003Z,19.00
2019-02-21T18:11:48.426Z,18.60
2019-02-21T18:14:14.650Z,20.50
2019-02-21T18:16:40.828Z,19.25
2019-02-21T18:19:07.059Z,19.87
2019-02-21T18:21:33.264Z,14.70
2019-02-21T18:23:59.464Z,21.17
2019-02-21T18:26:25.628Z,18.23
2019-02-21T18:28:51.825Z,20.45
2019-02-21T18:31:19.915Z,15.63
2019-02-21T18:33:46.120Z,22.07
2019-02-21T18:36:12.293Z,24.85
2019-02-21T18:38:38.470Z,19.17
2019-02-21T18:41:04.693Z,18.57
2019-02-21T18:43:30.951Z,21.93
2019-02-21T18:45:57.675Z,18.67
2019-02-21T18:48:24.044Z,21.75
2019-02-21T18:50:50.216Z,20.35
2019-02-21T18:53:16.392Z,19.60
2019-02-21T18:55:42.594Z,18.95
2019-02-21T18:58:08.984Z,17.52
2019-02-21T19:00:35.180Z,23.90
2019-02-21T19:03:01.496Z,19.50
2019-02-21T19:05:35.423Z,21.87
2019-02-21T19:08:03.972Z,20.80
2019-02-21T19:10:23.866Z,30.37
2019-02-21T19:12:50.232Z,27.13
2019-02-21T19:15:17.687Z,22.22
2019-02-21T19:17:43.876Z,25.10
2019-02-21T19:20:11.961Z,22.87
2019-02-21T19:22:38.130Z,27.93
2019-02-21T19:25:06.870Z,19.82
2019-02-21T19:27:37.123Z,26.30
2019-02-21T19:30:01.117Z,32.20
2019-02-21T19:32:27.345Z,31.40
2019-02-21T19:34:53.569Z,32.78
2019-02-21T19:37:19.997Z,34.73
2019-02-21T19:39:46.193Z,38.45
2019-02-21T19:42:12.584Z,35.65
2019-02-21T19:44:38.839Z,33.70
2019-02-21T19:47:04.996Z,33.45
2019-02-21T19:49:31.197Z,37.15
2019-02-21T19:51:57.417Z,42.40
2019-02-21T19:54:24.304Z,40.33
2019-02-21T19:56:50.495Z,39.38
2019-02-21T19:59:16.731Z,39.88
2019-02-21T20:01:42.934Z,44.42
2019-02-21T20:04:09.185Z,38.70
2019-02-21T20:06:35.382Z,34.78
2019-02-21T20:09:01.598Z,42.40
2019-02-21T20:11:29.693Z,39.25
2019-02-21T20:13:56.132Z,38.55
2019-02-21T20:16:22.340Z,33.15
2019-02-21T20:18:48.705Z,38.50
2019-02-21T20:21:14.884Z,35.17
2019-02-21T20:23:41.257Z,38.90
2019-02-21T20:26:17.658Z,34.65
2019-02-21T20:28:35.781Z,32.25
2019-02-21T20:31:01.959Z,33.13
2019-02-21T20:33:28.121Z,39.35
2019-02-21T20:35:54.298Z,35.92
2019-02-21T20:38:20.479Z,33.23
2019-02-21T20:40:46.641Z,35.40
2019-02-21T20:43:12.920Z,37.98
2019-02-21T20:45:39.111Z,40.33
2019-02-21T20:48:05.384Z,38.42
2019-02-21T20:50:31.537Z,37.15
2019-02-21T20:52:57.932Z,34.23
2019-02-21T20:55:24.091Z,35.17
2019-02-21T20:57:50.296Z,41.28
2019-02-21T21:00:17.057Z,38.70
2019-02-21T21:02:43.756Z,37.05
2019-02-21T21:05:09.912Z,34.70
2019-02-21T21:07:36.591Z,37.80
2019-02-21T21:10:07.295Z,32.65
2019-02-21T21:12:33.557Z,36.85
2019-02-21T21:14:59.764Z,38.48
2019-02-21T21:17:25.966Z,34.33
2019-02-21T21:19:52.169Z,36.85
2019-02-21T21:22:18.360Z,37.42
2019-02-21T21:24:44.563Z,37.95
2019-02-21T21:27:11.098Z,39.08
2019-02-21T21:29:37.321Z,41.48
2019-02-21T21:32:03.533Z,39.35
2019-02-21T21:34:29.897Z,35.28
2019-02-21T21:36:56.066Z,32.60
2019-02-21T21:39:22.258Z,36.05
2019-02-21T21:41:48.553Z,39.18
2019-02-21T21:44:14.836Z,36.40
2019-02-21T21:46:41.048Z,33.40
2019-02-21T21:49:07.205Z,33.53
2019-02-21T21:51:34.130Z,33.50
2019-02-21T21:54:00.493Z,33.78
2019-02-21T21:56:26.719Z,33.33
2019-02-21T21:58:52.893Z,30.95
2019-02-21T22:01:19.092Z,29.32
2019-02-21T22:03:45.258Z,26.35
2019-02-21T22:06:11.432Z,28.73
2019-02-21T22:08:37.601Z,30.25
2019-02-21T22:11:03.797Z,32.13
2019-02-21T22:13:29.974Z,37.33
2019-02-21T22:15:56.237Z,30.45
2019-02-21T22:18:22.518Z,26.57
2019-02-21T22:20:48.789Z,29.15
2019-02-21T22:23:14.977Z,30.37
2019-02-21T22:25:41.141Z,29.35
2019-02-21T22:28:07.369Z,33.70
2019-02-21T22:30:33.537Z,28.77
2019-02-21T22:32:59.734Z,29.57
2019-02-21T22:35:25.906Z,24.20
2019-02-21T22:37:52.092Z,25.05
2019-02-21T22:40:20.883Z,25.52
2019-02-21T22:42:47.041Z,26.10
2019-02-21T22:45:14.304Z,26.57
2019-02-21T22:47:40.634Z,31.85
2019-02-21T22:50:17.604Z,30.12
2019-02-21T22:52:43.767Z,30.43
2019-02-21T22:55:10.489Z,26.12
2019-02-21T22:57:37.138Z,27.70
2019-02-21T23:00:53.578Z,33.20
2019-02-21T23:03:30.758Z,25.05
2019-02-21T23:06:20.433Z,28.42
2019-02-21T23:08:51.101Z,31.65
2019-02-21T23:11:17.269Z,27.80
2019-02-21T23:13:44.541Z,28.00
2019-02-21T23:16:10.753Z,26.33
2019-02-21T23:18:36.916Z,31.65
2019-02-21T23:21:03.116Z,32.83
2019-02-21T23:23:29.781Z,31.02
2019-02-21T23:25:55.982Z,29.35
2019-02-21T23:28:22.180Z,27.82
2019-02-21T23:30:48.392Z,28.20
2019-02-21T23:33:15.688Z,27.77
2019-02-21T23:35:41.903Z,28.02
2019-02-21T23:38:08.183Z,22.70
2019-02-21T23:40:36.823Z,30.97
2019-02-21T23:43:02.456Z,28.17
2019-02-21T23:45:28.752Z,25.52
2019-02-21T23:47:54.944Z,28.12
2019-02-21T23:50:21.145Z,30.23
2019-02-21T23:52:47.348Z,28.15
2019-02-21T23:55:13.861Z,24.85
2019-02-21T23:57:40.100Z,30.02
